Time;durP1;ratioP1;P1;durP2;ratioP2;P2;SDS_P1;SDS_P2;PMS_P1;PMS_P2;Temp;Humidity;BMP_temperature;BMP_pressure;BME280_temperature;BME280_humidity;BME280_pressure;Samples;Min_cycle;Max_cycle;Signal;HPM_P1;HPM_P2
2021/10/21 00:01:25;;;;;;;;;;;;;;;15.69;100.00;99075.66;5111297;28;20026;-68
2021/10/21 00:03:51;;;;;;;;;;;;;;;15.68;100.00;99076.69;5111422;28;20051;-68
2021/10/21 00:06:19;;;;;;;;;;;;;;;15.66;100.00;99078.75;5109932;28;19924;-69
2021/10/21 00:08:45;;;;;;;;;;;;;;;15.65;100.00;99071.63;5111334;28;20298;-68
2021/10/21 00:11:12;;;;;;;;;;;;;;;15.68;100.00;99065.75;5111358;28;19923;-69
2021/10/21 00:13:38;;;;;;;;;;;;;;;15.67;100.00;99061.31;5111335;28;19938;-69
2021/10/21 00:16:05;;;;;;;;;;;;;;;15.70;100.00;99058.19;5111070;28;20412;-69
2021/10/21 00:18:31;;;;;;;;;;;;;;;15.70;100.00;99047.22;5111485;28;19974;-69
2021/10/21 00:20:57;;;;;;;;;;;;;;;15.70;100.00;99052.72;5114590;28;19930;-69
2021/10/21 00:23:25;;;;;;;;;;;;;;;15.67;100.00;99043.03;5114899;28;20010;-69
2021/10/21 00:25:51;;;;;;;;;;;;;;;15.64;100.00;99031.63;5114768;28;20294;-69
2021/10/21 00:28:17;;;;;;;;;;;;;;;15.63;100.00;99029.94;5114890;27;20022;-69
2021/10/21 00:30:44;;;;;;;;;;;;;;;15.60;100.00;99039.38;5114689;28;19924;-69
2021/10/21 00:33:10;;;;;;;;;;;;;;;15.59;100.00;99031.38;5114731;28;19945;-68
2021/10/21 00:35:36;;;;;;;;;;;;;;;15.53;100.00;99020.19;5114649;28;20006;-69
2021/10/21 00:38:03;;;;;;;;;;;;;;;15.57;100.00;98996.03;5114079;28;19946;-70
2021/10/21 00:40:30;;;;;;;;;;;;;;;15.60;100.00;99001.09;5114810;28;20022;-69
2021/10/21 00:42:56;;;;;;;;;;;;;;;15.55;100.00;99009.06;5113343;28;20015;-69
2021/10/21 00:45:23;;;;;;;;;;;;;;;15.50;100.00;99006.06;5114567;27;20014;-69
2021/10/21 00:47:49;;;;;;;;;;;;;;;15.49;100.00;99001.66;5114248;28;20449;-69
2021/10/21 00:50:16;;;;;;;;;;;;;;;15.46;100.00;99004.78;5114334;28;20477;-69
2021/10/21 00:52:42;;;;;;;;;;;;;;;15.47;100.00;98990.91;5114489;28;19924;-69
2021/10/21 00:55:09;;;;;;;;;;;;;;;15.47;100.00;98985.44;5113957;28;19983;-69
2021/10/21 00:57:38;;;;;;;;;;;;;;;15.45;100.00;98986.69;5114041;28;20367;-68
2021/10/21 01:00:05;;;;;;;;;;;;;;;15.42;100.00;98987.06;5114116;28;19924;-68
2021/10/21 01:02:31;;;;;;;;;;;;;;;15.44;100.00;98968.59;5114342;28;20010;-69
2021/10/21 01:04:57;;;;;;;;;;;;;;;15.48;100.00;98965.25;5113944;28;19924;-69
2021/10/21 01:07:24;;;;;;;;;;;;;;;15.48;100.00;98959.78;5114123;28;19923;-68
2021/10/21 01:09:50;;;;;;;;;;;;;;;15.49;100.00;98960.66;5113999;28;20026;-69
2021/10/21 01:12:16;;;;;;;;;;;;;;;15.47;100.00;98949.88;5114210;28;19924;-69
2021/10/21 01:14:45;;;;;;;;;;;;;;;15.44;100.00;98931.16;5113617;28;19946;-69
2021/10/21 01:17:14;;;;;;;;;;;;;;;15.38;100.00;98937.44;5110300;28;20439;-69
2021/10/21 01:19:40;;;;;;;;;;;;;;;15.35;100.00;98921.41;5113854;28;19930;-69
2021/10/21 01:22:07;;;;;;;;;;;;;;;15.31;100.00;98920.13;5113674;28;20450;-69
2021/10/21 01:24:34;;;;;;;;;;;;;;;15.28;100.00;98920.53;5113663;28;20030;-68
2021/10/21 01:27:00;;;;;;;;;;;;;;;15.20;100.00;98905.13;5113469;28;19927;-69
2021/10/21 01:29:27;;;;;;;;;;;;;;;15.16;100.00;98893.75;5113601;28;19930;-69
2021/10/21 01:31:54;;;;;;;;;;;;;;;15.14;100.00;98890.38;5111142;28;20018;-69
2021/10/21 01:34:20;;;;;;;;;;;;;;;15.13;100.00;98883.22;5113661;28;20026;-69
2021/10/21 01:36:50;;;;;;;;;;;;;;;15.15;100.00;98881.16;5113246;28;20409;-68
2021/10/21 01:39:17;;;;;;;;;;;;;;;15.18;100.00;98872.53;5113363;28;19923;-68
2021/10/21 01:41:43;;;;;;;;;;;;;;;15.22;100.00;98876.56;5113416;28;20375;-69
2021/10/21 01:44:10;;;;;;;;;;;;;;;15.21;100.00;98865.84;5113405;28;20018;-69
2021/10/21 01:46:38;;;;;;;;;;;;;;;15.22;100.00;98846.50;5113140;28;19924;-69
2021/10/21 01:49:04;;;;;;;;;;;;;;;15.22;100.00;98846.50;5112815;28;20438;-69
2021/10/21 01:51:31;;;;;;;;;;;;;;;15.19;100.00;98851.50;5113179;28;20018;-69
2021/10/21 01:53:57;;;;;;;;;;;;;;;15.24;100.00;98824.44;5113091;28;20458;-69
2021/10/21 01:56:25;;;;;;;;;;;;;;;15.28;100.00;98805.75;5112940;28;20430;-69
2021/10/21 01:58:51;;;;;;;;;;;;;;;15.26;100.00;98796.88;5113112;28;19927;-69
2021/10/21 02:01:17;;;;;;;;;;;;;;;15.24;100.00;98791.63;5111865;28;19967;-69
2021/10/21 02:03:43;;;;;;;;;;;;;;;15.23;100.00;98792.66;5112827;28;19951;-69
2021/10/21 02:06:10;;;;;;;;;;;;;;;15.23;100.00;98770.81;5112485;28;19929;-69
2021/10/21 02:08:36;;;;;;;;;;;;;;;15.21;100.00;98761.97;5113001;28;20353;-70
2021/10/21 02:11:02;;;;;;;;;;;;;;;15.17;100.00;98752.50;5112770;28;19962;-70
2021/10/21 02:13:30;;;;;;;;;;;;;;;15.22;100.00;98744.53;5112739;28;20010;-69
2021/10/21 02:15:56;;;;;;;;;;;;;;;15.22;100.00;98730.88;5111186;28;20022;-69
2021/10/21 02:18:22;;;;;;;;;;;;;;;15.19;100.00;98759.47;5112753;28;20033;-68
2021/10/21 02:20:49;;;;;;;;;;;;;;;15.22;100.00;98748.13;5112577;28;20037;-69
2021/10/21 02:23:15;;;;;;;;;;;;;;;15.23;100.00;98727.94;5112360;28;20440;-69
2021/10/21 02:25:41;;;;;;;;;;;;;;;15.24;100.00;98723.31;5112416;28;19955;-69
2021/10/21 02:28:07;;;;;;;;;;;;;;;15.19;100.00;98704.81;5112613;28;20026;-69
2021/10/21 02:30:35;;;;;;;;;;;;;;;15.18;100.00;98692.19;5112330;28;20034;-69
2021/10/21 02:33:01;;;;;;;;;;;;;;;15.17;100.00;98684.19;5112330;28;20454;-69
2021/10/21 02:35:28;;;;;;;;;;;;;;;15.21;100.00;98663.59;5112361;28;20441;-69
2021/10/21 02:37:54;;;;;;;;;;;;;;;15.23;100.00;98648.69;5112302;28;19932;-69
2021/10/21 02:40:20;;;;;;;;;;;;;;;15.26;100.00;98650.16;5112212;28;19934;-69
2021/10/21 02:42:47;;;;;;;;;;;;;;;15.26;100.00;98649.31;5112093;28;19951;-69
2021/10/21 02:45:13;;;;;;;;;;;;;;;15.27;100.00;98645.53;5112066;28;19955;-69
2021/10/21 02:47:41;;;;;;;;;;;;;;;15.31;100.00;98625.78;5112024;28;19934;-70
2021/10/21 02:50:07;;;;;;;;;;;;;;;15.38;100.00;98610.25;5110967;28;20057;-70
2021/10/21 02:52:34;;;;;;;;;;;;;;;15.44;100.00;98610.47;5112267;28;19971;-69
2021/10/21 02:55:00;;;;;;;;;;;;;;;15.45;100.00;98604.78;5111833;28;20034;-69
2021/10/21 02:57:26;;;;;;;;;;;;;;;15.48;100.00;98592.59;5111922;28;20014;-69
2021/10/21 02:59:52;;;;;;;;;;;;;;;15.52;100.00;98616.56;5112051;28;20022;-69
2021/10/21 03:02:19;;;;;;;;;;;;;;;15.58;100.00;98587.56;5111806;28;20357;-69
2021/10/21 03:04:46;;;;;;;;;;;;;;;15.64;100.00;98573.03;5111857;28;20026;-70
2021/10/21 03:07:12;;;;;;;;;;;;;;;15.72;100.00;98566.53;5111856;28;20018;-69
2021/10/21 03:09:39;;;;;;;;;;;;;;;15.75;100.00;98568.81;5111840;28;20399;-70
2021/10/21 03:12:05;;;;;;;;;;;;;;;15.71;100.00;98590.31;5111751;28;19959;-70
2021/10/21 03:14:32;;;;;;;;;;;;;;;15.75;100.00;98579.75;5111418;28;19923;-69
2021/10/21 03:16:58;;;;;;;;;;;;;;;15.75;100.00;98566.09;5111538;28;20367;-69
2021/10/21 03:19:25;;;;;;;;;;;;;;;15.77;100.00;98555.78;5111822;28;19984;-69
2021/10/21 03:21:52;;;;;;;;;;;;;;;15.78;100.00;98556.63;5111687;28;20010;-69
2021/10/21 03:24:18;;;;;;;;;;;;;;;15.80;100.00;98533.50;5111769;28;19950;-69
2021/10/21 03:26:45;;;;;;;;;;;;;;;15.73;100.00;98533.47;5108085;28;19928;-69
2021/10/21 03:29:11;;;;;;;;;;;;;;;15.70;100.00;98536.66;5111631;28;20010;-69
2021/10/21 03:31:37;;;;;;;;;;;;;;;15.72;100.00;98517.28;5111191;28;19986;-69
2021/10/21 03:34:04;;;;;;;;;;;;;;;15.72;100.00;98500.88;5111543;28;20454;-69
2021/10/21 03:36:30;;;;;;;;;;;;;;;15.73;100.00;98508.88;5111315;28;19959;-69
2021/10/21 03:38:57;;;;;;;;;;;;;;;15.73;100.00;98497.94;5111502;28;20022;-69
2021/10/21 03:41:24;;;;;;;;;;;;;;;15.72;100.00;98498.97;5111651;28;20014;-69
2021/10/21 03:43:50;;;;;;;;;;;;;;;15.72;100.00;98509.09;5111673;28;19963;-68
2021/10/21 03:46:17;;;;;;;;;;;;;;;15.71;100.00;98507.41;5111390;28;19951;-68
2021/10/21 03:48:43;;;;;;;;;;;;;;;15.72;100.00;98512.66;5111250;28;19968;-68
2021/10/21 03:51:10;;;;;;;;;;;;;;;15.70;100.00;98506.56;5111615;28;20443;-68
2021/10/21 03:53:36;;;;;;;;;;;;;;;15.74;100.00;98494.16;5111735;28;20022;-68
2021/10/21 03:56:05;;;;;;;;;;;;;;;15.74;100.00;98485.94;5115148;28;20030;-69
2021/10/21 03:58:31;;;;;;;;;;;;;;;15.78;100.00;98490.97;5115386;28;19923;-69
2021/10/21 04:00:57;;;;;;;;;;;;;;;15.80;100.00;98481.53;5115320;28;19928;-69
2021/10/21 04:03:23;;;;;;;;;;;;;;;15.77;100.00;98464.69;5115527;28;19991;-69
2021/10/21 04:05:50;;;;;;;;;;;;;;;15.72;100.00;98457.13;5114971;28;20013;-69
2021/10/21 04:08:16;;;;;;;;;;;;;;;15.72;100.00;98451.66;5115053;28;20027;-69
2021/10/21 04:10:43;;;;;;;;;;;;;;;15.71;100.00;98452.69;5115152;28;20022;-69
2021/10/21 04:13:11;;;;;;;;;;;;;;;15.71;100.00;98445.34;5115169;28;19927;-69
2021/10/21 04:15:37;;;;;;;;;;;;;;;15.71;100.00;98447.22;5115219;28;20031;-69
2021/10/21 04:18:03;;;;;;;;;;;;;;;15.71;100.00;98434.41;5114873;28;20015;-69
2021/10/21 04:20:29;;;;;;;;;;;;;;;15.69;100.00;98439.25;5114909;28;19963;-69
2021/10/21 04:22:56;;;;;;;;;;;;;;;15.72;100.00;98463.41;5115022;28;20014;-69
2021/10/21 04:25:22;;;;;;;;;;;;;;;15.80;100.00;98476.06;5114387;28;20022;-69
2021/10/21 04:27:48;;;;;;;;;;;;;;;15.80;100.00;98480.69;5114848;28;20026;-69
2021/10/21 04:30:16;;;;;;;;;;;;;;;15.55;100.00;98415.72;5114790;27;20011;-69
2021/10/21 04:32:42;;;;;;;;;;;;;;;15.06;100.00;98391.38;5114909;28;19955;-69
2021/10/21 04:35:09;;;;;;;;;;;;;;;14.67;100.00;98419.50;5114561;28;20026;-68
2021/10/21 04:37:35;;;;;;;;;;;;;;;14.40;100.00;98424.88;5111260;28;20001;-69
2021/10/21 04:40:02;;;;;;;;;;;;;;;14.17;100.00;98423.31;5105177;28;20007;-68
2021/10/21 04:42:29;;;;;;;;;;;;;;;14.00;100.00;98427.44;5106215;28;20022;-69
2021/10/21 04:44:55;;;;;;;;;;;;;;;13.92;100.00;98398.44;5114381;28;19924;-69
2021/10/21 04:47:23;;;;;;;;;;;;;;;13.90;100.00;98376.84;5114024;28;20020;-68
2021/10/21 04:49:49;;;;;;;;;;;;;;;13.89;100.00;98375.16;5114595;28;19951;-68
2021/10/21 04:52:15;;;;;;;;;;;;;;;13.93;100.00;98325.69;5114501;28;20442;-68
2021/10/21 04:54:42;;;;;;;;;;;;;;;13.91;100.00;98334.06;5114303;28;19955;-69
2021/10/21 04:57:08;;;;;;;;;;;;;;;13.86;100.00;98325.66;5104381;28;20303;-69
2021/10/21 04:59:34;;;;;;;;;;;;;;;13.87;100.00;98340.97;5110573;28;19958;-68
2021/10/21 05:02:01;;;;;;;;;;;;;;;13.88;100.00;98354.41;5112049;28;19938;-68
2021/10/21 05:04:28;;;;;;;;;;;;;;;13.85;100.00;98338.44;5111249;28;20034;-68
2021/10/21 05:06:54;;;;;;;;;;;;;;;13.87;100.00;98302.81;5102034;28;20386;-68
2021/10/21 05:09:21;;;;;;;;;;;;;;;13.92;100.00;98283.09;5114069;28;19966;-69
2021/10/21 05:11:47;;;;;;;;;;;;;;;13.91;100.00;98265.91;5113815;28;19962;-69
2021/10/21 05:14:13;;;;;;;;;;;;;;;13.91;100.00;98238.63;5097426;28;19924;-68
2021/10/21 05:16:40;;;;;;;;;;;;;;;13.93;100.00;98213.88;5096324;28;20453;-68
2021/10/21 05:19:06;;;;;;;;;;;;;;;13.89;100.00;98217.00;5113687;28;19970;-69
2021/10/21 05:21:33;;;;;;;;;;;;;;;13.90;100.00;98237.78;5113821;27;20014;-68
2021/10/21 05:24:00;;;;;;;;;;;;;;;13.88;100.00;98217.22;5113779;27;19959;-68
2021/10/21 05:26:26;;;;;;;;;;;;;;;13.86;100.00;98228.31;5100593;28;20006;-68
2021/10/21 05:28:52;;;;;;;;;;;;;;;13.88;100.00;98215.34;5091838;28;20106;-69
2021/10/21 05:31:18;;;;;;;;;;;;;;;13.84;100.00;98207.75;5093258;28;20030;-69
2021/10/21 05:33:45;;;;;;;;;;;;;;;13.81;100.00;98222.66;5092629;28;20031;-69
2021/10/21 05:36:11;;;;;;;;;;;;;;;13.78;100.00;98219.50;5092995;28;20027;-68
2021/10/21 05:38:38;;;;;;;;;;;;;;;13.80;100.00;98214.69;5100672;28;20023;-68
2021/10/21 05:41:05;;;;;;;;;;;;;;;13.77;100.00;98221.38;5113367;28;20085;-69
2021/10/21 05:43:31;;;;;;;;;;;;;;;13.82;100.00;98216.16;5112867;28;20007;-68
2021/10/21 05:45:58;;;;;;;;;;;;;;;13.91;100.00;98208.63;5093502;28;20356;-69
2021/10/21 05:48:24;;;;;;;;;;;;;;;13.93;100.00;98206.53;5105095;28;19996;-69
2021/10/21 05:50:50;;;;;;;;;;;;;;;13.98;100.00;98219.56;5092411;28;20458;-69
2021/10/21 05:53:16;;;;;;;;;;;;;;;14.06;100.00;98224.81;5093054;28;20034;-69
2021/10/21 05:55:44;;;;;;;;;;;;;;;14.10;100.00;98206.97;5104239;28;20039;-69
2021/10/21 05:58:12;;;;;;;;;;;;;;;14.18;100.00;98222.28;5101575;28;20027;-69
2021/10/21 06:00:39;;;;;;;;;;;;;;;14.20;100.00;98212.00;5095458;28;19932;-69
2021/10/21 06:03:05;;;;;;;;;;;;;;;14.23;100.00;98211.59;5092428;28;20347;-69
2021/10/21 06:05:31;;;;;;;;;;;;;;;14.25;100.00;98217.66;5096588;28;19932;-68
2021/10/21 06:08:00;;;;;;;;;;;;;;;14.31;100.00;98194.16;5102448;28;19934;-67
2021/10/21 06:10:27;;;;;;;;;;;;;;;14.38;100.00;98189.56;5092317;28;19931;-66
2021/10/21 06:12:54;;;;;;;;;;;;;;;14.41;100.00;98175.47;5097784;28;20434;-66
2021/10/21 06:15:21;;;;;;;;;;;;;;;14.39;100.00;98199.38;5092334;28;20023;-66
2021/10/21 06:17:48;;;;;;;;;;;;;;;14.43;100.00;98178.84;5097798;28;19969;-66
2021/10/21 06:20:15;;;;;;;;;;;;;;;14.54;100.00;98133.69;5095513;28;20291;-67
2021/10/21 06:22:42;;;;;;;;;;;;;;;14.57;100.00;98139.53;5090986;28;19927;-67
2021/10/21 06:25:10;;;;;;;;;;;;;;;14.58;100.00;98162.22;5091706;28;20412;-67
2021/10/21 06:27:37;;;;;;;;;;;;;;;14.60;100.00;98160.09;5091804;28;20387;-67
2021/10/21 06:30:05;;;;;;;;;;;;;;;14.66;100.00;98155.75;5093063;28;19952;-67
2021/10/21 06:32:32;;;;;;;;;;;;;;;14.69;100.00;98150.66;5092041;28;19928;-67
2021/10/21 06:34:58;;;;;;;;;;;;;;;14.75;100.00;98139.94;5091879;28;19931;-67
2021/10/21 06:37:24;;;;;;;;;;;;;;;14.85;100.00;98129.41;5091830;28;20015;-67
2021/10/21 06:39:54;;;;;;;;;;;;;;;14.91;100.00;98134.00;5092821;28;20062;-67
2021/10/21 06:42:21;;;;;;;;;;;;;;;15.00;100.00;98138.16;5109304;28;19962;-65
2021/10/21 06:44:47;;;;;;;;;;;;;;;15.05;100.00;98124.69;5111874;28;20466;-67
2021/10/21 06:47:15;;;;;;;;;;;;;;;15.04;100.00;98124.94;5112068;28;20022;-66
2021/10/21 06:49:41;;;;;;;;;;;;;;;15.10;100.00;98150.53;5110467;28;20060;-66
2021/10/21 06:52:07;;;;;;;;;;;;;;;15.16;100.00;98136.84;5112067;28;20015;-67
2021/10/21 06:54:34;;;;;;;;;;;;;;;15.18;100.00;98140.22;5111961;28;20015;-67
2021/10/21 06:57:00;;;;;;;;;;;;;;;15.23;100.00;98121.28;5111696;28;19949;-66
2021/10/21 06:59:26;;;;;;;;;;;;;;;15.31;100.00;98122.06;5110257;28;20557;-68
2021/10/21 07:01:53;;;;;;;;;;;;;;;15.31;100.00;98111.97;5111530;28;19941;-68
2021/10/21 07:04:21;;;;;;;;;;;;;;;15.35;100.00;98118.69;5111866;28;20467;-68
2021/10/21 07:06:47;;;;;;;;;;;;;;;15.39;100.00;98136.31;5111655;28;19984;-68
2021/10/21 07:09:14;;;;;;;;;;;;;;;15.36;100.00;98131.28;5110091;28;19952;-68
2021/10/21 07:11:40;;;;;;;;;;;;;;;15.37;100.00;98127.50;5111739;28;20024;-69
2021/10/21 07:14:06;;;;;;;;;;;;;;;15.37;100.00;98137.59;5111658;28;20023;-70
2021/10/21 07:16:32;;;;;;;;;;;;;;;15.32;100.00;98135.50;5111326;28;20363;-69
2021/10/21 07:18:59;;;;;;;;;;;;;;;15.33;100.00;98139.09;5104278;28;19978;-69
2021/10/21 07:21:26;;;;;;;;;;;;;;;15.34;100.00;98121.59;5090958;28;20399;-69
2021/10/21 07:23:52;;;;;;;;;;;;;;;15.34;100.00;98122.47;5089941;28;19989;-69
2021/10/21 07:26:19;;;;;;;;;;;;;;;15.28;100.00;98128.78;5110491;28;19924;-69
2021/10/21 07:28:45;;;;;;;;;;;;;;;15.18;100.00;98066.44;5111906;28;20027;-73
2021/10/21 07:31:15;;;;;;;;;;;;;;;15.15;100.00;98146.13;5114143;28;19984;-69
2021/10/21 07:33:41;;;;;;;;;;;;;;;15.12;100.00;98160.19;5115701;28;19928;-68
2021/10/21 07:36:07;;;;;;;;;;;;;;;15.02;100.00;98143.44;5101143;28;19967;-68
2021/10/21 07:38:35;;;;;;;;;;;;;;;15.16;100.00;98164.16;5096020;28;19928;-69
2021/10/21 07:41:01;;;;;;;;;;;;;;;15.51;100.00;98150.13;5095044;28;19978;-70
2021/10/21 07:43:27;;;;;;;;;;;;;;;16.04;100.00;98164.53;5096245;28;19951;-70
2021/10/21 07:45:54;;;;;;;;;;;;;;;16.23;100.00;98160.78;5095659;28;20023;-70
2021/10/21 07:48:20;;;;;;;;;;;;;;;16.45;100.00;98174.06;5110811;28;20363;-69
2021/10/21 07:50:46;;;;;;;;;;;;;;;16.60;100.00;98181.09;5099335;28;19931;-69
2021/10/21 07:53:13;;;;;;;;;;;;;;;16.56;100.00;98167.84;5094641;28;20003;-70
2021/10/21 07:55:40;;;;;;;;;;;;;;;16.51;100.00;98162.19;5092358;28;20026;-69
2021/10/21 07:58:07;;;;;;;;;;;;;;;16.34;100.00;98180.25;5094614;28;20015;-69
2021/10/21 08:00:33;;;;;;;;;;;;;;;16.20;100.00;98152.19;5094912;28;19981;-69
2021/10/21 08:02:59;;;;;;;;;;;;;;;16.15;100.00;98169.25;5094668;28;20364;-70
2021/10/21 08:05:27;;;;;;;;;;;;;;;15.99;100.00;98175.28;5094727;28;19966;-69
2021/10/21 08:07:53;;;;;;;;;;;;;;;15.99;100.00;98161.59;5094416;28;19932;-69
2021/10/21 08:10:19;;;;;;;;;;;;;;;16.24;100.00;98167.91;5094557;28;19931;-69
2021/10/21 08:12:47;;;;;;;;;;;;;;;16.27;100.00;98185.78;5093032;28;19928;-69
2021/10/21 08:15:14;;;;;;;;;;;;;;;16.13;100.00;98200.63;5092627;28;19931;-69
2021/10/21 08:17:42;;;;;;;;;;;;;;;16.05;100.00;98177.16;5094446;28;19960;-69
2021/10/21 08:20:11;;;;;;;;;;;;;;;15.64;100.00;98167.50;5094463;28;19930;-69
2021/10/21 08:22:37;;;;;;;;;;;;;;;15.69;100.00;98156.75;5094355;28;19978;-68
2021/10/21 08:25:04;;;;;;;;;;;;;;;16.02;100.00;98139.25;5094194;28;19930;-69
2021/10/21 08:27:30;;;;;;;;;;;;;;;16.17;100.00;98183.56;5094064;28;19970;-69
2021/10/21 08:29:58;;;;;;;;;;;;;;;15.77;100.00;98164.69;5094062;28;20456;-69
2021/10/21 08:32:24;;;;;;;;;;;;;;;15.72;100.00;98157.13;5093847;28;20010;-68
2021/10/21 08:34:50;;;;;;;;;;;;;;;15.85;100.00;98174.56;5094000;28;19963;-69
2021/10/21 08:37:17;;;;;;;;;;;;;;;15.97;100.00;98161.84;5093853;28;19993;-69
2021/10/21 08:39:43;;;;;;;;;;;;;;;15.97;100.00;98147.34;5093540;28;19920;-69
2021/10/21 08:42:11;;;;;;;;;;;;;;;15.77;100.00;98158.34;5093954;28;20087;-69
2021/10/21 08:44:38;;;;;;;;;;;;;;;15.63;100.00;98163.91;5093931;28;20011;-69
2021/10/21 08:47:06;;;;;;;;;;;;;;;15.45;100.00;98145.53;5093925;28;20022;-68
2021/10/21 08:49:33;;;;;;;;;;;;;;;15.28;100.00;98149.84;5093792;28;19923;-68
2021/10/21 08:51:59;;;;;;;;;;;;;;;15.15;100.00;98140.66;5096291;28;20367;-68
2021/10/21 08:54:26;;;;;;;;;;;;;;;15.06;100.00;98140.03;5104227;28;19965;-69
2021/10/21 08:56:52;;;;;;;;;;;;;;;15.00;100.00;98137.34;5102085;28;20030;-68
2021/10/21 08:59:19;;;;;;;;;;;;;;;14.93;100.00;98147.47;5104954;28;19920;-68
2021/10/21 09:01:47;;;;;;;;;;;;;;;14.86;100.00;98142.84;5101998;28;19924;-68
2021/10/21 09:04:26;;;;;;;;;;;;;;;14.80;100.00;98151.06;5103164;28;20323;-68
2021/10/21 09:09:42;;;;;;;;;;;;;;;14.86;100.00;98142.84;5103761;28;20018;-69
2021/10/21 09:12:10;;;;;;;;;;;;;;;14.85;100.00;98129.41;5098610;28;19935;-69
2021/10/21 09:14:37;;;;;;;;;;;;;;;14.76;100.00;98150.66;5093368;28;19926;-68
2021/10/21 09:17:05;;;;;;;;;;;;;;;14.69;100.00;98153.41;5092848;28;19928;-69
2021/10/21 09:19:33;;;;;;;;;;;;;;;14.53;100.00;98146.47;5093346;28;19920;-69
2021/10/21 09:22:00;;;;;;;1999.90;999.90;;;;;;;14.39;100.00;98148.41;5092813;28;20423;-69
2021/10/21 09:24:27;;;;;;;;;;;;;;;13.96;100.00;98148.00;5100339;28;20952;-68
2021/10/21 09:26:58;;;;;;;;;;;;;;;13.47;100.00;98171.81;5112888;28;20341;-69
2021/10/21 09:29:24;;;;;;;;;;;;;;;13.19;100.00;98170.06;5113339;28;20010;-68
2021/10/21 09:32:01;;;;;;;;;;;;;;;13.10;100.00;98166.66;5113250;28;20395;-68
2021/10/21 09:34:28;;;;;;;;;;;;;;;13.14;100.00;98169.81;5096892;28;20019;-68
2021/10/21 09:37:03;;;;;;;;;;;;;;;13.35;100.00;98166.13;5092529;28;20014;-68
2021/10/21 09:39:39;;;;;;;;;;;;;;;13.41;100.00;98143.53;5092768;28;20354;-68
2021/10/21 09:42:06;;;;;;;;;;;;;;;13.44;100.00;98154.03;5092747;28;20018;-68
2021/10/21 09:44:32;;;;;;;;;;;;;;;13.40;100.00;98155.44;5092707;28;19963;-68
2021/10/21 09:46:59;;;;;;;;;;;;;;;13.36;100.00;98154.19;5091522;28;20018;-68
2021/10/21 09:49:29;;;;;;;;;;;;;;;13.42;100.00;98166.19;5090778;28;20377;-68
2021/10/21 09:51:57;;;;;;;1502.10;752.00;;;;;;;13.60;100.00;98157.41;5089995;28;20030;-67
2021/10/21 09:54:24;;;;;;;1999.90;999.90;;;;;;;13.85;100.00;98147.56;5090583;28;20435;-70
2021/10/21 09:56:55;;;;;;;;;;;;;;;14.04;100.00;98184.09;5092276;28;20107;-69
2021/10/21 09:59:24;;;;;;;;;;;;;;;14.19;100.00;98161.19;5092567;28;20018;-69
2021/10/21 10:01:50;;;;;;;;;;;;;;;14.24;100.00;98161.41;5092049;28;19920;-68
2021/10/21 10:04:17;;;;;;;;;;;;;;;14.30;100.00;98163.31;5092586;28;19920;-69
2021/10/21 10:06:43;;;;;;;1999.90;999.90;;;;;;;14.31;100.00;98155.94;5090301;28;20840;-69
2021/10/21 10:09:11;;;;;;;;;;;;;;;14.32;100.00;98141.25;5091506;28;20510;-68
2021/10/21 10:11:38;;;;;;;;;;;;;;;14.36;100.00;98188.91;5092286;28;19927;-68
2021/10/21 10:14:04;;;;;;;;;;;;;;;14.38;100.00;98173.19;5092097;28;19924;-69
2021/10/21 10:16:32;;;;;;;;;;;;;;;14.44;100.00;98185.97;5091979;28;20003;-68
2021/10/21 10:18:58;;;;;;;;;;;;;;;14.39;100.00;98186.59;5091655;28;20019;-68
2021/10/21 10:21:29;;;;;;;;;;;;;;;14.35;100.00;98163.53;5092053;28;20398;-69
2021/10/21 10:23:58;;;;;;;;;;;;;;;14.39;100.00;98172.09;5091902;28;19952;-69
2021/10/21 10:26:41;;;;;;;;;;;;;;;14.40;100.00;98188.28;5091867;28;20459;-69
2021/10/21 10:29:07;;;;;;;;;;;;;;;14.36;100.00;98186.19;5091922;28;20443;-69
2021/10/21 10:31:38;;;;;;;;;;;;;;;14.36;100.00;98205.28;5092080;28;20015;-69
2021/10/21 10:34:04;;;;;;;;;;;;;;;14.32;100.00;98184.94;5094269;28;19928;-69
2021/10/21 10:36:32;;;;;;;;;;;;;;;14.30;100.00;98209.69;5106270;28;20044;-69
2021/10/21 10:38:59;;;;;;;;;;;;;;;14.31;100.00;98211.38;5110708;28;20325;-69
2021/10/21 10:41:52;;;;;;;;;;;;;;;14.37;100.00;98220.63;5112166;28;20517;-69
2021/10/21 10:44:37;;;;;;;;;;;;;;;14.30;100.00;98225.25;5112471;28;19924;-70
2021/10/21 10:47:05;;;;;;;1999.90;999.90;;;;;;;13.92;100.00;98245.75;5105744;28;20487;-69
2021/10/21 10:49:41;;;;;;;1999.90;999.90;;;;;;;13.78;100.00;98241.31;5098482;28;20956;-70
2021/10/21 10:52:10;;;;;;;1999.90;999.90;;;;;;;13.81;100.00;98230.81;5091550;28;20514;-70
2021/10/21 10:55:02;;;;;;;1999.90;999.90;;;;;;;13.80;100.00;98259.16;5091148;28;20058;-70
2021/10/21 10:57:52;;;;;;;1999.90;999.90;;;;;;;13.37;100.00;98268.44;5094175;28;20047;-70
2021/10/21 11:00:45;;;;;;;1999.90;999.90;;;;;;;12.62;100.00;98319.03;5092121;28;20052;-70
2021/10/21 11:03:13;;;;;;;1999.90;999.90;;;;;;;12.04;100.00;98369.72;5090797;28;20111;-70
2021/10/21 11:05:53;;;;;;;1999.90;999.90;;;;;;;11.83;100.00;98413.16;5091102;28;20073;-70
2021/10/21 11:08:19;;;;;;;1999.90;999.90;;;;;;;11.88;100.00;98411.53;5089467;28;20435;-68
2021/10/21 11:10:52;;;;;;;1999.90;999.90;;;;;;;11.89;100.00;98431.41;5089806;28;20507;-70
2021/10/21 11:13:40;;;;;;;1999.90;999.90;;;;;;;11.80;100.00;98457.84;5090409;28;20985;-69
2021/10/21 11:16:39;;;;;;;1502.35;752.22;;;;;;;11.76;100.00;98483.72;5092998;28;20120;-69
2021/10/21 11:19:06;;;;;;;1999.90;999.90;;;;;;;11.82;100.00;98491.09;5090716;28;20415;-69
2021/10/21 11:21:53;;;;;;;1999.90;999.90;;;;;;;11.89;100.00;98489.34;5090660;28;20047;-69
2021/10/21 11:24:53;;;;;;;1999.90;999.90;;;;;;;12.01;100.00;98514.22;5090429;28;20461;-70
2021/10/21 11:27:24;;;;;;;1999.90;999.90;;;;;;;12.00;100.00;98509.81;5085607;28;20162;-69
2021/10/21 11:29:53;;;;;;;1999.90;999.90;;;;;;;11.93;100.00;98535.19;5109878;28;20092;-69
2021/10/21 11:32:22;;;;;;;1999.90;999.90;;;;;;;11.92;100.00;98563.38;5096842;28;20050;-70
2021/10/21 11:34:49;;;;;;;;;;;;;;;11.87;100.00;98578.38;5109964;28;20358;-69
2021/10/21 11:37:15;;;;;;;;;;;;;;;11.87;100.00;98588.44;5111278;28;19923;-69
2021/10/21 11:39:42;;;;;;;;;;;;;;;11.88;100.00;98587.41;5111635;28;20333;-69
2021/10/21 11:42:10;;;;;;;;;;;;;;;11.99;100.00;98618.75;5105368;28;20027;-69
2021/10/21 11:44:36;;;;;;;;;;;;;;;12.22;100.00;98622.22;5102151;28;19928;-69
2021/10/21 11:47:05;;;;;;;;;;;;;;;12.43;100.00;98612.50;5090769;28;19928;-69
2021/10/21 11:49:32;;;;;;;;;;;;;;;12.50;100.00;98634.34;5105051;28;20367;-69
2021/10/21 11:52:02;;;;;;;;;;;;;;;12.53;100.00;98644.84;5105985;28;20018;-69
2021/10/21 11:54:29;;;;;;;;;;;;;;;12.47;100.00;98651.06;5107737;28;19930;-70
2021/10/21 11:56:56;;;;;;;;;;;;;;;12.56;100.00;98672.53;5110775;28;19967;-69
2021/10/21 11:59:31;;;;;;;;;;;;;;;12.62;100.00;98675.56;5111285;28;19977;-69
2021/10/21 12:02:07;;;;;;;;;;;;;;;12.69;100.00;98703.69;5111223;28;19927;-69
2021/10/21 12:04:33;;;;;;;;;;;;;;;12.61;100.00;98704.63;5111016;28;20018;-69
2021/10/21 12:07:01;;;;;;;;;;;;;;;12.36;100.00;98704.06;5110943;28;19951;-69
2021/10/21 12:09:27;;;;;;;1999.90;999.90;;;;;;;12.13;100.00;98721.28;5110049;28;20502;-70
2021/10/21 12:12:00;;;;;;;;;;;;;;;11.88;100.00;98750.50;5110850;28;20551;-69
2021/10/21 12:14:26;;;;;;;;;;;;;;;11.78;100.00;98769.75;5106073;28;20337;-69
2021/10/21 12:16:52;;;;;;;;;;;;;;;11.65;100.00;98739.63;5103703;28;20331;-68
2021/10/21 12:19:21;;;;;;;;;;;;;;;11.54;100.00;98765.31;5094478;28;20290;-69
2021/10/21 12:21:47;;;;;;;;;;;;;;;11.48;100.00;98772.31;5095568;28;19920;-69
2021/10/21 12:24:20;;;;;;;;;;;;;;;11.43;100.00;98791.03;5100375;28;19931;-70
2021/10/21 12:26:52;;;;;;;;;;;;;;;11.46;100.00;98797.97;5109858;28;19989;-70
2021/10/21 12:29:19;;;;;;;;;;;;;;;11.53;100.00;98805.25;5096284;28;20019;-70
2021/10/21 12:31:48;;;;;;;;;;;;;;;11.52;100.00;98819.84;5093868;28;20011;-70
2021/10/21 12:34:23;;;;;;;;;;;;;;;11.55;100.00;98819.50;5094126;28;20383;-68